Time;durP1;ratioP1;P1;durP2;ratioP2;P2;SDS_P1;SDS_P2;PMS_P1;PMS_P2;Temp;Humidity;BMP_temperature;BMP_pressure;BME280_temperature;BME280_humidity;BME280_pressure;Samples;Min_cycle;Max_cycle;Signal;HPM_P1;HPM_P2
2023/05/19 00:02:20;;;;;;;;;;;;;;;;;;5093740;27;42947;-91
2023/05/19 00:04:46;;;;;;;;;;;20.90;90.30;;;;;;5102417;27;43014;-94
2023/05/19 00:07:12;;;;;;;;;;;;;;;;;;5094045;27;43094;-93
2023/05/19 00:09:38;;;;;;;;;;;20.80;89.90;;;;;;5103400;27;42825;-92
2023/05/19 00:12:03;;;;;;;;;;;20.90;90.20;;;;;;5097109;27;44848;-92
2023/05/19 00:14:29;;;;;;;;;;;20.90;90.20;;;;;;5091880;27;43122;-94
2023/05/19 00:16:56;;;;;;;;;;;20.90;90.30;;;;;;5092565;27;44412;-95
2023/05/19 00:19:24;;;;;;;;;;;20.90;89.80;;;;;;5103936;27;42330;-95
2023/05/19 00:21:50;;;;;;;;;;;;;;;;;;5095986;27;42879;-96
2023/05/19 00:24:16;;;;;;;;;;;;;;;;;;5090663;27;43120;-89
2023/05/19 00:26:41;;;;;;;;;;;20.90;90.50;;;;;;5094117;27;43654;-91
2023/05/19 00:29:07;;;;;;;;;;;;;;;;;;5087086;27;42918;-90
2023/05/19 00:31:33;;;;;;;;;;;20.90;90.40;;;;;;5087698;27;43030;-91
2023/05/19 00:33:58;;;;;;;;;;;;;;;;;;5086819;27;42969;-89
2023/05/19 00:36:24;;;;;;;;;;;20.90;90.50;;;;;;5085318;27;43550;-90
2023/05/19 00:38:50;;;;;;;;;;;20.80;90.40;;;;;;5087298;27;43172;-91
2023/05/19 00:41:16;;;;;;;;;;;;;;;;;;5091488;27;43405;-84
2023/05/19 00:43:42;;;;;;;;;;;21.00;90.50;;;;;;5092910;27;43035;-89
2023/05/19 00:46:09;;;;;;;;;;;;;;;;;;5094370;27;43039;-88
2023/05/19 00:48:35;;;;;;;;;;;;;;;;;;5097607;27;43056;-91
2023/05/19 00:51:03;;;;;;;;;;;;;;;;;;5087813;27;44105;-93
2023/05/19 00:53:29;;;;;;;;;;;;;;;;;;5102475;27;42878;-95
2023/05/19 00:55:55;;;;;;;;;;;;;;;;;;5100152;27;42516;-94
2023/05/19 00:58:22;;;;;;;;;;;20.90;90.90;;;;;;5093395;27;42381;-94
2023/05/19 01:00:49;;;;;;;;;;;20.80;90.70;;;;;;5094170;27;43511;-88
2023/05/19 01:03:19;;;;;;;;;;;;;;;;;;5098282;27;42964;-92
2023/05/19 01:05:47;;;;;;;;;;;;;;;;;;5096640;27;43822;-81
2023/05/19 01:08:12;;;;;;;;;;;;;;;;;;5095844;27;43028;-89
2023/05/19 01:10:38;;;;;;;;;;;20.90;91.00;;;;;;5087558;27;42883;-92
2023/05/19 01:13:04;;;;;;;;;;;;;;;;;;5087201;27;42923;-90
2023/05/19 01:15:32;;;;;;;;;;;20.90;91.00;;;;;;5087530;27;42945;-92
2023/05/19 01:18:07;;;;;;;;;;;20.80;91.00;;;;;;5096985;27;42985;-93
2023/05/19 01:20:34;;;;;;;;;;;;;;;;;;5100403;27;44139;-87
2023/05/19 01:22:59;;;;;;;;;;;20.90;90.70;;;;;;5101429;27;43026;-92
2023/05/19 01:25:31;;;;;;;;;;;21.00;91.20;;;;;;5107113;27;42955;-90
2023/05/19 01:27:57;;;;;;;;;;;;;;;;;;5092873;27;43084;-87
2023/05/19 01:30:24;;;;;;;;;;;;;;;;;;5104323;27;42844;-92
2023/05/19 01:32:52;;;;;;;;;;;20.90;91.20;;;;;;5087174;27;42976;-92
2023/05/19 01:35:18;;;;;;;;;;;;;;;;;;5094187;27;42937;-91
2023/05/19 01:37:44;;;;;;;;;;;21.00;91.50;;;;;;5093772;27;42991;-92
2023/05/19 01:40:10;;;;;;;;;;;;;;;;;;5095344;27;43570;-88
2023/05/19 01:42:38;;;;;;;;;;;;;;;;;;5094344;27;43067;-92
2023/05/19 01:45:05;;;;;;;;;;;;;;;;;;5100566;27;43464;-91
2023/05/19 01:47:33;;;;;;;;;;;20.90;91.40;;;;;;5095547;27;42812;-92
2023/05/19 01:49:59;;;;;;;;;;;20.70;91.10;;;;;;5096362;27;43552;-87
2023/05/19 01:52:25;;;;;;;;;;;21.00;91.30;;;;;;5087930;27;42906;-92
2023/05/19 01:54:50;;;;;;;;;;;21.00;91.40;;;;;;5098840;27;43738;-92
2023/05/19 01:57:16;;;;;;;;;;;;;;;;;;5086675;27;42960;-92
2023/05/19 01:59:50;;;;;;;;;;;20.90;91.40;;;;;;5088470;27;43137;-91
2023/05/19 02:02:16;;;;;;;;;;;;;;;;;;5097055;27;43145;-92
2023/05/19 02:04:42;;;;;;;;;;;21.00;91.50;;;;;;5095031;27;42602;-95
2023/05/19 02:07:25;;;;;;;;;;;21.00;91.60;;;;;;5105360;27;42870;-89
2023/05/19 02:09:51;;;;;;;;;;;;;;;;;;5102970;27;43010;-94
2023/05/19 02:12:37;;;;;;;;;;;20.90;91.60;;;;;;5094344;27;42952;-94
2023/05/19 02:15:09;;;;;;;;;;;20.90;91.60;;;;;;5085117;27;43400;-94
2023/05/19 02:17:35;;;;;;;;;;;;;;;;;;5100430;27;42770;-95
2023/05/19 02:20:03;;;;;;;;;;;20.80;91.60;;;;;;5087781;27;43368;-94
2023/05/19 02:22:29;;;;;;;;;;;20.80;91.70;;;;;;5098327;27;42275;-94
2023/05/19 02:24:56;;;;;;;;;;;20.90;91.60;;;;;;5099533;27;43771;-93
2023/05/19 02:27:22;;;;;;;;;;;20.90;91.50;;;;;;5088904;27;42843;-90
2023/05/19 02:29:47;;;;;;;;;;;;;;;;;;5106708;27;43438;-94
2023/05/19 02:32:13;;;;;;;;;;;;;;;;;;5102429;27;43119;-93
2023/05/19 02:34:41;;;;;;;;;;;20.80;91.70;;;;;;5096556;27;43660;-89
2023/05/19 02:37:06;;;;;;;;;;;;;;;;;;5086073;27;42925;-94
2023/05/19 02:39:34;;;;;;;;;;;;;;;;;;5086513;27;42934;-91
2023/05/19 02:42:00;;;;;;;;;;;;;;;;;;5098991;27;42933;-91
2023/05/19 02:44:26;;;;;;;;;;;;;;;;;;5085919;27;43392;-86
2023/05/19 02:46:51;;;;;;;;;;;20.90;91.40;;;;;;5099300;27;42918;-93
2023/05/19 02:49:18;;;;;;;;;;;;;;;;;;5085810;27;43748;-92
2023/05/19 02:51:45;;;;;;;;;;;;;;;;;;5086238;27;43008;-93
2023/05/19 02:54:11;;;;;;;;;;;;;;;;;;5095761;27;43026;-92
2023/05/19 02:56:37;;;;;;;;;;;;;;;;;;5091120;27;43163;-91
2023/05/19 02:59:03;;;;;;;;;;;;;;;;;;5086511;27;43557;-89
2023/05/19 03:01:28;;;;;;;;;;;;;;;;;;5087698;27;42934;-89
2023/05/19 03:03:54;;;;;;;;;;;;;;;;;;5104161;27;42978;-90
2023/05/19 03:06:22;;;;;;;;;;;20.90;91.90;;;;;;5086584;27;43106;-90
2023/05/19 03:08:47;;;;;;;;;;;20.70;92.10;;;;;;5095545;27;43759;-92
2023/05/19 03:11:14;;;;;;;;;;;;;;;;;;5096002;27;42953;-91
2023/05/19 03:13:39;;;;;;;;;;;20.80;92.00;;;;;;5085996;27;43302;-91
2023/05/19 03:16:06;;;;;;;;;;;;;;;;;;5065965;27;42992;-91
2023/05/19 03:18:32;;;;;;;;;;;;;;;;;;5087138;27;44280;-92
2023/05/19 03:20:58;;;;;;;;;;;;;;;;;;5089166;27;42945;-90
2023/05/19 03:23:25;;;;;;;;;;;;;;;;;;5085877;27;42976;-91
2023/05/19 03:25:52;;;;;;;;;;;;;;;;;;5093100;27;43107;-92
2023/05/19 03:28:22;;;;;;;;;;;;;;;;;;5073219;27;44166;-90
2023/05/19 03:30:49;;;;;;;;;;;20.90;92.30;;;;;;5093487;27;43421;-84
2023/05/19 03:33:15;;;;;;;;;;;20.90;92.20;;;;;;5094438;27;43615;-84
2023/05/19 03:35:40;;;;;;;;;;;;;;;;;;5096514;27;43034;-84
2023/05/19 03:38:06;;;;;;;;;;;20.80;92.20;;;;;;5103975;27;42944;-85
2023/05/19 03:40:32;;;;;;;;;;;;;;;;;;5094790;27;42906;-83
2023/05/19 03:42:59;;;;;;;;;;;;;;;;;;5088403;27;42929;-86
2023/05/19 03:45:25;;;;;;;;;;;;;;;;;;5094993;27;43038;-86
2023/05/19 03:47:51;;;;;;;;;;;;;;;;;;5074597;27;44727;-84
2023/05/19 03:50:17;;;;;;;;;;;;;;;;;;5101376;27;42987;-85
2023/05/19 03:52:45;;;;;;;;;;;;;;;;;;5097316;27;43630;-84
2023/05/19 03:55:11;;;;;;;;;;;;;;;;;;5092644;27;43086;-85
2023/05/19 03:57:37;;;;;;;;;;;;;;;;;;5082733;27;44575;-85
2023/05/19 04:00:02;;;;;;;;;;;;;;;;;;5090520;27;43075;-81
2023/05/19 04:02:28;;;;;;;;;;;;;;;;;;5086158;27;42952;-85
2023/05/19 04:04:54;;;;;;;;;;;;;;;;;;5092801;27;42989;-84
2023/05/19 04:07:20;;;;;;;;;;;;;;;;;;5090799;27;43926;-84
2023/05/19 04:09:47;;;;;;;;;;;;;;;;;;5095017;27;43345;-80
2023/05/19 04:12:13;;;;;;;;;;;;;;;;;;5099759;27;43105;-84
2023/05/19 04:14:39;;;;;;;;;;;;;;;;;;5090688;27;42926;-85
2023/05/19 04:17:05;;;;;;;;;;;;;;;;;;5085295;27;43014;-86
2023/05/19 04:19:31;;;;;;;;;;;;;;;;;;5087950;27;43047;-86
2023/05/19 04:21:56;;;;;;;;;;;;;;;;;;5091020;27;43765;-84
2023/05/19 04:24:22;;;;;;;;;;;;;;;;;;5092744;27;43739;-86
2023/05/19 04:26:48;;;;;;;;;;;;;;;;;;5090698;27;43401;-84
2023/05/19 04:29:16;;;;;;;;;;;;;;;;;;5095765;27;42990;-84
2023/05/19 04:31:43;;;;;;;;;;;;;;;;;;5095866;27;43083;-84
2023/05/19 04:34:09;;;;;;;;;;;;;;;;;;5087931;27;43044;-85
2023/05/19 04:36:35;;;;;;;;;;;;;;;;;;5091529;27;43511;-85
2023/05/19 04:39:03;;;;;;;;;;;;;;;;;;5092282;27;42944;-84
2023/05/19 04:41:29;;;;;;;;;;;;;;;;;;5081967;27;44141;-82
2023/05/19 04:43:56;;;;;;;;;;;;;;;;;;5093888;27;42915;-81
2023/05/19 04:46:23;;;;;;;;;;;;;;;;;;5088878;27;43713;-82
2023/05/19 04:48:49;;;;;;;;;;;;;;;;;;5087969;27;43035;-82
2023/05/19 04:51:16;;;;;;;;;;;;;;;;;;5087740;27;43831;-83
2023/05/19 04:53:42;;;;;;;;;;;;;;;;;;5099619;27;43126;-79
2023/05/19 04:56:08;;;;;;;;;;;;;;;;;;5098435;27;43486;-82
2023/05/19 04:58:34;;;;;;;;;;;;;;;;;;5098217;27;43193;-81
2023/05/19 05:01:00;;;;;;;;;;;;;;;;;;5100974;27;43698;-83
2023/05/19 05:03:26;;;;;;;;;;;;;;;;;;5094924;27;43957;-82
2023/05/19 05:05:52;;;;;;;;;;;;;;;;;;5101136;27;43061;-82
2023/05/19 05:08:22;;;;;;;;;;;;;;;;;;5099310;27;42947;-83
2023/05/19 05:10:48;;;;;;;;;;;;;;;;;;5104282;27;43143;-82
2023/05/19 05:13:13;;;;;;;;;;;;;;;;;;5088560;27;42903;-82
2023/05/19 05:15:39;;;;;;;;;;;;;;;;;;5094530;27;42950;-82
2023/05/19 05:18:05;;;;;;;;;;;;;;;;;;5100994;27;42972;-81
2023/05/19 05:20:31;;;;;;;;;;;;;;;;;;5100009;27;43574;-81
2023/05/19 05:22:57;;;;;;;;;;;;;;;;;;5087851;27;43267;-80
2023/05/19 05:25:23;;;;;;;;;;;;;;;;;;5096918;27;43758;-79
2023/05/19 05:27:49;;;;;;;;;;;;;;;;;;5085381;27;43207;-79
2023/05/19 05:30:15;;;;;;;;;;;;;;;;;;5089107;27;43163;-80
2023/05/19 05:32:41;;;;;;;;;;;;;;;;;;5094725;27;43036;-80
2023/05/19 05:35:07;;;;;;;;;;;;;;;;;;5089132;27;43067;-80
2023/05/19 05:37:33;;;;;;;;;;;;;;;;;;5093981;27;43111;-79
2023/05/19 05:39:59;;;;;;;;;;;;;;;;;;5085076;27;43060;-80
2023/05/19 05:42:25;;;;;;;;;;;;;;;;;;5088807;27;42997;-80
2023/05/19 05:44:50;;;;;;;;;;;;;;;;;;5090709;27;43565;-79
2023/05/19 05:47:16;;;;;;;;;;;;;;;;;;5090920;27;43171;-80
2023/05/19 05:49:42;;;;;;;;;;;;;;;;;;5091334;27;43572;-81
2023/05/19 05:52:08;;;;;;;;;;;;;;;;;;5091671;27;43192;-80
2023/05/19 05:54:34;;;;;;;;;;;;;;;;;;5091410;27;42901;-79
2023/05/19 05:57:01;;;;;;;;;;;;;;;;;;5095474;27;43033;-79
2023/05/19 05:59:27;;;;;;;;;;;;;;;;;;5095006;27;42891;-80
2023/05/19 06:01:53;;;;;;;;;;;;;;;;;;5100621;27;43100;-79
2023/05/19 06:04:19;;;;;;;;;;;;;;;;;;5102726;27;43495;-80
2023/05/19 06:06:45;;;;;;;;;;;;;;;;;;5105356;27;43016;-80
2023/05/19 06:09:11;;;;;;;;;;;;;;;;;;5106035;27;42908;-80
2023/05/19 06:11:37;;;;;;;;;;;;;;;;;;5087190;27;43011;-80
2023/05/19 06:14:03;;;;;;;;;;;;;;;;;;5101800;27;44203;-79
2023/05/19 06:16:29;;;;;;;;;;;;;;;;;;5093696;27;43065;-80
2023/05/19 06:18:55;;;;;;;;;;;;;;;;;;5092767;27;44070;-80
2023/05/19 06:21:21;;;;;;;;;;;;;;;;;;5074636;28;43120;-80
2023/05/19 06:23:47;;;;;;;;;;;;;;;;;;5094031;27;43075;-80
2023/05/19 06:26:14;;;;;;;;;;;;;;;;;;5086644;27;43522;-80
2023/05/19 06:28:40;;;;;;;;;;;;;;;;;;5091514;27;43608;-79
2023/05/19 06:31:05;;;;;;;;;;;;;;;;;;5093132;27;42891;-80
2023/05/19 06:33:31;;;;;;;;;;;;;;;;;;5098468;27;43262;-80
2023/05/19 06:35:57;;;;;;;;;;;;;;;;;;5098700;27;42975;-78
2023/05/19 06:38:23;;;;;;;;;;;;;;;;;;5080784;28;44003;-82
2023/05/19 06:40:49;;;;;;;;;;;;;;;;;;5094989;27;43080;-82
2023/05/19 06:43:15;;;;;;;;;;;;;;;;;;5083453;27;43803;-81
2023/05/19 06:45:41;;;;;;;;;;;;;;;;;;5096687;27;43095;-82
2023/05/19 06:48:07;;;;;;;;;;;;;;;;;;5092896;27;43913;-84
2023/05/19 06:50:33;;;;;;;;;;;;;;;;;;5100265;27;43077;-84
2023/05/19 06:52:59;;;;;;;;;;;;;;;;;;5095639;27;43613;-80
2023/05/19 06:55:24;;;;;;;;;;;;;;;;;;5086323;27;43595;-85
2023/05/19 06:57:50;;;;;;;;;;;;;;;;;;5098638;27;42973;-84
2023/05/19 07:00:17;;;;;;;;;;;;;;;;;;5099795;27;43964;-84
2023/05/19 07:02:43;;;;;;;;;;;;;;;;;;5101127;27;43576;-84
2023/05/19 07:05:09;;;;;;;;;;;;;;;;;;5102684;27;43027;-83
2023/05/19 07:07:35;;;;;;;;;;;;;;;;;;5097666;27;42987;-84
2023/05/19 07:10:01;;;;;;;;;;;;;;;;;;5079982;27;42959;-79
2023/05/19 07:12:27;;;;;;;;;;;;;;;;;;5100295;27;44103;-84
2023/05/19 07:14:52;;;;;;;;;;;;;;;;;;5096016;27;43056;-83
2023/05/19 07:17:18;;;;;;;;;;;;;;;;;;5103779;27;43662;-79
2023/05/19 07:19:44;;;;;;;;;;;;;;;;;;5100927;27;43140;-78
2023/05/19 07:22:10;;;;;;;;;;;;;;;;;;5104821;27;43086;-78
2023/05/19 07:24:36;;;;;;;;;;;;;;;;;;5100161;27;43385;-79
2023/05/19 07:27:02;;;;;;;;;;;;;;;;;;5101869;27;42956;-80
2023/05/19 07:29:28;;;;;;;;;;;;;;;;;;5103647;27;43080;-79
2023/05/19 07:31:56;;;;;;;;;;;;;;;;;;5101611;27;43521;-85
2023/05/19 07:34:22;;;;;;;;;;;;;;;;;;5097165;27;42983;-87
2023/05/19 07:36:48;;;;;;;;;;;;;;;;;;5097966;27;43119;-84
2023/05/19 07:39:14;;;;;;;;;;;;;;;;;;5072465;27;42938;-80
2023/05/19 07:41:40;;;;;;;;;;;;;;;;;;5101026;27;43033;-83
2023/05/19 07:44:06;;;;;;;;;;;;;;;;;;5090965;27;42982;-80
2023/05/19 07:46:32;;;;;;;;;;;;;;;;;;5099715;27;42877;-80
2023/05/19 07:48:58;;;;;;;;;;;;;;;;;;5081223;27;43488;-77
2023/05/19 07:51:24;;;;;;;;;;;;;;;;;;5090919;27;42930;-78
2023/05/19 07:53:50;;;;;;;;;;;;;;;;;;5098708;27;42803;-80
2023/05/19 07:56:16;;;;;;;;;;;;;;;;;;5094727;27;43036;-79
2023/05/19 07:58:42;;;;;;;;;;;;;;;;;;5094878;27;42934;-79
2023/05/19 08:01:07;;;;;;;;;;;;;;;;;;5095093;27;43353;-82
2023/05/19 08:03:33;;;;;;;;;;;;;;;;;;5096981;27;42799;-78
2023/05/19 08:05:59;;;;;;;;;;;;;;;;;;5097455;27;43268;-87
2023/05/19 08:08:25;;;;;;;;;;;;;;;;;;5090497;27;42980;-77
2023/05/19 08:10:51;;;;;;;;;;;;;;;;;;5091397;27;44013;-78
2023/05/19 08:13:17;;;;;;;;;;;;;;;;;;5105619;27;42861;-80
2023/05/19 08:15:43;;;;;;;;;;;;;;;;;;5094474;27;44015;-83
2023/05/19 08:18:09;;;;;;;;;;;;;;;;;;5103347;27;43071;-83
2023/05/19 08:20:35;;;;;;;;;;;;;;;;;;5088885;27;43477;-78
2023/05/19 08:23:01;;;;;;;;;;;;;;;;;;5093062;27;44064;-85
2023/05/19 08:25:27;;;;;;;;;;;;;;;;;;5100796;27;42980;-85
2023/05/19 08:27:53;;;;;;;;;;;;;;;;;;5096774;27;42974;-82
2023/05/19 08:30:19;;;;;;;;;;;;;;;;;;5101633;27;43489;-85
2023/05/19 08:32:45;;;;;;;;;;;;;;;;;;5100234;27;42958;-85
2023/05/19 08:35:11;;;;;;;;;;;;;;;;;;5099406;27;43102;-83
2023/05/19 08:37:37;;;;;;;;;;;;;;;;;;5104006;27;43040;-80
2023/05/19 08:40:07;;;;;;;;;;;;;;;;;;5107731;27;43520;-78
2023/05/19 08:42:33;;;;;;;;;;;;;;;;;;5105306;27;43060;-85
2023/05/19 08:44:59;;;;;;;;;;;;;;;;;;5087910;27;45312;-83
2023/05/19 08:47:26;;;;;;;;;;;;;;;;;;5072480;27;42873;-84
2023/05/19 08:49:52;;;;;;;;;;;;;;;;;;5095607;27;43606;-83
2023/05/19 08:52:18;;;;;;;;;;;;;;;;;;5089995;27;43025;-83
2023/05/19 08:54:44;;;;;;;;;;;;;;;;;;5098412;27;43016;-84
2023/05/19 08:57:10;;;;;;;;;;;;;;;;;;5087696;27;43356;-84
2023/05/19 08:59:36;;;;;;;;;;;;;;;;;;5095048;27;43251;-84
2023/05/19 09:02:02;;;;;;;;;;;;;;;;;;5098360;27;42936;-84
2023/05/19 09:04:28;;;;;;;;;;;;;;;;;;5088669;27;42965;-83
2023/05/19 09:06:54;;;;;;;;;;;;;;;;;;5089923;27;43551;-85
2023/05/19 09:09:20;;;;;;;;;;;;;;;;;;5076288;27;43250;-83
2023/05/19 09:11:46;;;;;;;;;;;;;;;;;;5102777;27;43064;-84
2023/05/19 09:14:11;;;;;;;;;;;;;;;;;;5097844;27;43542;-85
2023/05/19 09:16:37;;;;;;;;;;;;;;;;;;5089232;27;42915;-85
2023/05/19 09:19:03;;;;;;;;;;;;;;;;;;5092241;27;43206;-77
2023/05/19 09:21:32;;;;;;;;;;;;;;;;;;5094558;27;42991;-78
2023/05/19 09:24:03;;;;;;;;;;;20.70;87.20;;;;;;5097836;27;43417;-78
2023/05/19 09:26:29;;;;;;;;;;;;;;;;;;5098405;27;43413;-77
2023/05/19 09:28:56;;;;;;;;;;;20.70;87.20;;;;;;5096335;27;43903;-78
2023/05/19 09:31:22;;;;;;;;;;;20.70;87.00;;;;;;5102268;27;43203;-78
2023/05/19 09:33:51;;;;;;;;;;;20.70;85.80;;;;;;5102375;27;43227;-76
2023/05/19 09:36:17;;;;;;;;;;;;;;;;;;5101534;27;42988;-78
2023/05/19 09:38:43;;;;;;;;;;;;;;;;;;5097212;27;43118;-77
2023/05/19 09:41:09;;;;;;;;;;;;;;;;;;5098536;27;42908;-78
2023/05/19 09:43:35;;;;;;;;;;;20.80;87.10;;;;;;5097894;27;44239;-77
2023/05/19 09:46:01;;;;;;;;;;;;;;;;;;5099631;27;42950;-82
2023/05/19 09:48:26;;;;;;;;;;;20.80;88.10;;;;;;5094458;27;43489;-78
2023/05/19 09:50:52;;;;;;;;;;;;;;;;;;5080165;27;43174;-77
2023/05/19 09:53:19;;;;;;;;;;;;;;;;;;5090595;27;43826;-76
2023/05/19 09:55:44;;;;;;;;;;;20.70;88.60;;;;;;5090030;27;42872;-76
2023/05/19 09:58:11;;;;;;;;;;;;;;;;;;5089924;27;43024;-74
2023/05/19 10:00:37;;;;;;;;;;;20.70;86.70;;;;;;5102443;27;42966;-76
2023/05/19 10:03:03;;;;;;;;;;;20.80;87.20;;;;;;5096177;27;43583;-77
2023/05/19 10:05:29;;;;;;;;;;;;;;;;;;5099770;27;43010;-79
2023/05/19 10:07:55;;;;;;;;;;;;;;;;;;5097735;27;43884;-76
2023/05/19 10:10:21;;;;;;;;;;;20.80;88.20;;;;;;5099489;27;42827;-80
2023/05/19 10:12:47;;;;;;;;;;;20.80;87.50;;;;;;5097398;27;43754;-78
2023/05/19 10:15:13;;;;;;;;;;;;;;;;;;5096654;27;42910;-77
2023/05/19 10:17:40;;;;;;;;;;;20.80;88.30;;;;;;5087947;27;44102;-81
2023/05/19 10:20:06;;;;;;;;;;;;;;;;;;5093706;27;43052;-79
2023/05/19 10:22:32;;;;;;;;;;;21.00;86.90;;;;;;5092651;27;44044;-80
2023/05/19 10:24:57;;;;;;;;;;;20.80;87.30;;;;;;5091059;27;42937;-82
2023/05/19 10:27:24;;;;;;;;;;;20.70;86.40;;;;;;5094478;27;43743;-82
2023/05/19 10:29:50;;;;;;;;;;;20.70;86.60;;;;;;5088382;27;43446;-78
2023/05/19 10:32:18;;;;;;;;;;;21.00;86.10;;;;;;5090369;27;43568;-82
2023/05/19 10:34:44;;;;;;;;;;;20.90;86.60;;;;;;5091336;27;43261;-86
2023/05/19 10:37:20;;;;;;;;;;;20.90;84.30;;;;;;5097778;27;42880;-85
2023/05/19 10:39:47;;;;;;;;;;;21.10;83.50;;;;;;5074505;27;43038;-86
2023/05/19 10:42:15;;;;;;;;;;;20.80;85.60;;;;;;5091063;27;42970;-89
2023/05/19 10:44:46;;;;;;;;;;;20.90;84.80;;;;;;5068970;27;43113;-88
2023/05/19 10:47:12;;;;;;;;;;;21.00;83.80;;;;;;5088646;27;42961;-90
2023/05/19 10:49:38;;;;;;;;;;;;;;;;;;5098638;27;42992;-95
2023/05/19 10:52:17;;;;;;;;;;;20.90;88.30;;;;;;5092228;27;42969;-87
2023/05/19 10:54:46;;;;;;;;;;;20.80;86.70;;;;;;5092454;27;43234;-90
2023/05/19 10:57:15;;;;;;;;;;;20.70;87.00;;;;;;5088269;27;44340;-86
2023/05/19 10:59:43;;;;;;;;;;;;;;;;;;5096827;27;42989;-86
2023/05/19 11:02:09;;;;;;;;;;;;;;;;;;5101647;27;44347;-87
2023/05/19 11:04:38;;;;;;;;;;;20.80;89.40;;;;;;5095211;27;42941;-87
2023/05/19 11:07:04;;;;;;;;;;;20.80;87.30;;;;;;5092436;27;43081;-86
2023/05/19 11:09:32;;;;;;;;;;;21.00;89.20;;;;;;5103728;27;42992;-84
2023/05/19 11:11:59;;;;;;;;;;;;;;;;;;5066608;27;44559;-81
2023/05/19 11:14:25;;;;;;;;;;;20.80;88.60;;;;;;5094827;27;43016;-84
2023/05/19 11:16:51;;;;;;;;;;;;;;;;;;5094928;27;43046;-89
2023/05/19 11:19:18;;;;;;;;;;;;;;;;;;5073157;27;43066;-88
2023/05/19 11:21:49;;;;;;;;;;;20.70;86.50;;;;;;5094573;27;43421;-88
2023/05/19 11:24:35;;;;;;;;;;;20.70;84.30;;;;;;5092975;27;59763;-84
2023/05/19 11:27:01;;;;;;;;;;;;;;;;;;5091402;27;43594;-88
2023/05/19 11:29:27;;;;;;;;;;;;;;;;;;5091149;27;43060;-86
2023/05/19 11:31:53;;;;;;;;;;;;;;;;;;5091715;27;43469;-86
2023/05/19 11:34:20;;;;;;;;;;;;;;;;;;5092798;27;43096;-79
2023/05/19 11:36:47;;;;;;;;;;;20.70;88.90;;;;;;5071516;27;44530;-87
2023/05/19 11:39:12;;;;;;;;;;;20.80;86.30;;;;;;5082107;27;43374;-84
2023/05/19 11:41:39;;;;;;;;;;;;;;;;;;5092900;27;43441;-84
2023/05/19 11:44:05;;;;;;;;;;;;;;;;;;5096005;27;42962;-84
2023/05/19 11:46:31;;;;;;;;;;;;;;;;;;5099294;27;43066;-84
2023/05/19 11:48:57;;;;;;;;;;;;;;;;;;5094629;27;43029;-86
2023/05/19 11:51:23;;;;;;;;;;;;;;;;;;5083946;27;43122;-85
2023/05/19 11:53:49;;;;;;;;;;;;;;;;;;5088530;27;42999;-84
2023/05/19 11:56:15;;;;;;;;;;;;;;;;;;5095604;27;43170;-84
2023/05/19 11:58:41;;;;;;;;;;;;;;;;;;5093147;27;43263;-85
2023/05/19 12:01:06;;;;;;;;;;;;;;;;;;5098421;27;43627;-86
2023/05/19 12:03:32;;;;;;;;;;;;;;;;;;5098338;27;43131;-83
2023/05/19 12:05:58;;;;;;;;;;;;;;;;;;5094398;27;43455;-86
2023/05/19 12:08:26;;;;;;;;;;;;;;;;;;5087249;27;43129;-86
2023/05/19 12:10:51;;;;;;;;;;;;;;;;;;5075685;27;44455;-84
2023/05/19 12:13:17;;;;;;;;;;;;;;;;;;5092027;27;43957;-84
2023/05/19 12:15:43;;;;;;;;;;;;;;;;;;5097907;27;43528;-84
2023/05/19 12:18:09;;;;;;;;;;;;;;;;;;5095524;27;43004;-86
2023/05/19 12:20:36;;;;;;;;;;;;;;;;;;5099142;27;42977;-85
2023/05/19 12:23:02;;;;;;;;;;;;;;;;;;5095379;27;43028;-83
2023/05/19 12:25:27;;;;;;;;;;;;;;;;;;5100110;27;42973;-87
2023/05/19 12:27:55;;;;;;;;;;;;;;;;;;5100628;27;42975;-82
2023/05/19 12:30:20;;;;;;;;;;;;;;;;;;5099622;27;43029;-83
2023/05/19 12:32:47;;;;;;;;;;;;;;;;;;5093939;27;43047;-81
2023/05/19 12:35:14;;;;;;;;;;;;;;;;;;5096349;27;43997;-81
2023/05/19 12:37:40;;;;;;;;;;;;;;;;;;5095491;27;43182;-92
2023/05/19 12:40:05;;;;;;;;;;;;;;;;;;5097747;27;43691;-92
2023/05/19 12:42:33;;;;;;;;;;;;;;;;;;5095372;27;43079;-91
2023/05/19 12:44:59;;;;;;;;;;;;;;;;;;5103118;27;42909;-92
2023/05/19 12:47:34;;;;;;;;;;;20.70;84.20;;;;;;5097845;27;43320;-76
2023/05/19 12:50:00;;;;;;;;;;;;;;;;;;5099798;27;43262;-77
2023/05/19 12:52:26;;;;;;;;;;;;;;;;;;5089996;27;43138;-77
2023/05/19 12:54:52;;;;;;;;;;;;;;;;;;5089890;27;42939;-77
2023/05/19 12:57:18;;;;;;;;;;;;;;;;;;5070569;27;43235;-76
2023/05/19 12:59:45;;;;;;;;;;;;;;;;;;5089703;27;43185;-77
2023/05/19 13:02:17;;;;;;;;;;;;;;;;;;5084068;27;43058;-77
2023/05/19 13:04:43;;;;;;;;;;;;;;;;;;5087924;27;44889;-76
2023/05/19 13:07:09;;;;;;;;;;;;;;;;;;5100635;27;44256;-76
2023/05/19 13:09:35;;;;;;;;;;;;;;;;;;5098277;27;43160;-77
2023/05/19 13:12:01;;;;;;;;;;;;;;;;;;5095309;27;43068;-76
2023/05/19 13:14:26;;;;;;;;;;;20.80;89.30;;;;;;5102163;27;43412;-76
2023/05/19 13:16:52;;;;;;;;;;;20.80;88.40;;;;;;5098443;27;43123;-76
2023/05/19 13:19:43;;;;;;;;;;;20.80;88.30;;;;;;5103167;27;44319;-77
2023/05/19 13:22:09;;;;;;;;;;;20.90;87.20;;;;;;5085432;27;43153;-81
2023/05/19 13:24:35;;;;;;;;;;;20.90;87.40;;;;;;5099685;27;43538;-76
2023/05/19 13:27:02;;;;;;;;;;;;;;;;;;5091572;27;42867;-77
2023/05/19 13:29:27;;;;;;;;;;;20.70;89.40;;;;;;5093263;27;43593;-95
2023/05/19 13:31:53;;;;;;;;;;;20.80;89.40;;;;;;5075404;27;43082;-78
2023/05/19 13:34:18;;;;;;;;;;;21.00;89.20;;;;;;5098418;27;43162;-78
2023/05/19 13:36:46;;;;;;;;;;;20.90;89.10;;;;;;5096620;27;43031;-84
2023/05/19 13:39:12;;;;;;;;;;;20.80;87.40;;;;;;5111723;27;43080;-78
2023/05/19 13:41:38;;;;;;;;;;;;;;;;;;5082892;28;42935;-78
2023/05/19 13:44:04;;;;;;;;;;;20.90;87.80;;;;;;5105033;27;42938;-91
2023/05/19 13:46:30;;;;;;;;;;;;;;;;;;5098885;27;43107;-81
2023/05/19 13:48:56;;;;;;;;;;;;;;;;;;5093568;27;43648;-82
2023/05/19 13:51:22;;;;;;;;;;;;;;;;;;5097542;27;42878;-85
2023/05/19 13:53:48;;;;;;;;;;;;;;;;;;5093071;27;43184;-84
2023/05/19 13:56:14;;;;;;;;;;;;;;;;;;5088011;27;43569;-86
2023/05/19 13:58:39;;;;;;;;;;;;;;;;;;5096985;27;42894;-90
2023/05/19 14:01:05;;;;;;;;;;;;;;;;;;5102492;27;42994;-80
2023/05/19 14:03:31;;;;;;;;;;;;;;;;;;5093934;27;43064;-88
2023/05/19 14:05:57;;;;;;;;;;;;;;;;;;5103976;27;43050;-78
2023/05/19 14:08:23;;;;;;;;;;;20.80;89.50;;;;;;5091856;27;43042;-91
2023/05/19 14:10:49;;;;;;;;;;;20.80;89.90;;;;;;5104446;27;42893;-84
2023/05/19 14:13:14;;;;;;;;;;;20.90;89.50;;;;;;5076616;27;42887;-86
2023/05/19 14:15:40;;;;;;;;;;;20.80;89.20;;;;;;5070225;27;43264;-85
2023/05/19 14:18:05;;;;;;;;;;;20.90;89.40;;;;;;5095316;27;43334;-90
2023/05/19 14:20:31;;;;;;;;;;;;;;;;;;5084514;27;42927;-77
2023/05/19 14:22:57;;;;;;;;;;;20.90;89.20;;;;;;5094510;27;43872;-85
2023/05/19 14:25:22;;;;;;;;;;;20.80;89.60;;;;;;5097574;27;42887;-85
2023/05/19 14:27:48;;;;;;;;;;;;;;;;;;5088092;27;43445;-87
2023/05/19 14:30:14;;;;;;;;;;;20.80;90.20;;;;;;5089281;27;43138;-79
2023/05/19 14:32:40;;;;;;;;;;;;;;;;;;5092674;27;44033;-83
2023/05/19 14:35:05;;;;;;;;;;;20.80;90.20;;;;;;5103365;27;42854;-91
2023/05/19 14:37:31;;;;;;;;;;;;;;;;;;5102304;27;43340;-79
2023/05/19 14:39:57;;;;;;;;;;;;;;;;;;5097134;27;42932;-81
2023/05/19 14:42:23;;;;;;;;;;;;;;;;;;5098410;27;43069;-80
2023/05/19 14:44:49;;;;;;;;;;;21.00;90.30;;;;;;5099372;27;43045;-78
2023/05/19 14:47:14;;;;;;;;;;;;;;;;;;5094353;27;42981;-80
2023/05/19 14:49:40;;;;;;;;;;;;;;;;;;5094583;27;43205;-80
2023/05/19 14:52:06;;;;;;;;;;;;;;;;;;5086497;27;44063;-79
2023/05/19 14:54:32;;;;;;;;;;;;;;;;;;5076883;27;43058;-80
2023/05/19 14:56:58;;;;;;;;;;;;;;;;;;5075919;27;44844;-80
2023/05/19 14:59:25;;;;;;;;;;;;;;;;;;5101833;27;43113;-80
2023/05/19 15:01:50;;;;;;;;;;;20.90;91.00;;;;;;5080708;27;43712;-79
2023/05/19 15:04:16;;;;;;;;;;;;;;;;;;5096513;27;42997;-78
2023/05/19 15:06:42;;;;;;;;;;;;;;;;;;5100552;27;42919;-81
2023/05/19 15:09:08;;;;;;;;;;;;;;;;;;5086577;27;42910;-81
2023/05/19 15:11:34;;;;;;;;;;;;;;;;;;5099303;27;43515;-79
2023/05/19 15:14:00;;;;;;;;;;;;;;;;;;5097057;27;42842;-82
2023/05/19 15:16:25;;;;;;;;;;;;;;;;;;5098398;27;42963;-80
2023/05/19 15:18:52;;;;;;;;;;;;;;;;;;5087116;27;43202;-80
2023/05/19 15:21:20;;;;;;;;;;;;;;;;;;5098313;27;43542;-81
2023/05/19 15:23:45;;;;;;;;;;;;;;;;;;5091225;27;43084;-81
2023/05/19 15:26:11;;;;;;;;;;;;;;;;;;5099275;27;42855;-82
2023/05/19 15:28:37;;;;;;;;;;;;;;;;;;5081275;27;43058;-81
2023/05/19 15:31:03;;;;;;;;;;;;;;;;;;5084096;27;44403;-81
2023/05/19 15:33:29;;;;;;;;;;;;;;;;;;5068750;28;42952;-81
2023/05/19 15:35:55;;;;;;;;;;;;;;;;;;5065642;28;45889;-80
2023/05/19 15:38:21;;;;;;;;;;;;;;;;;;5101735;27;42836;-81
2023/05/19 15:40:47;;;;;;;;;;;;;;;;;;5068451;28;44625;-81
2023/05/19 15:43:13;;;;;;;;;;;;;;;;;;5069708;27;42871;-81
2023/05/19 15:45:39;;;;;;;;;;;;;;;;;;5104364;27;43564;-81
2023/05/19 15:48:05;;;;;;;;;;;;;;;;;;5086036;27;42925;-81
2023/05/19 15:50:31;;;;;;;;;;;;;;;;;;5095707;27;43981;-81
2023/05/19 15:52:57;;;;;;;;;;;21.00;92.80;;;;;;5099595;27;43044;-81
2023/05/19 15:55:24;;;;;;;;;;;;;;;;;;5085222;27;43190;-83
2023/05/19 15:57:50;;;;;;;;;;;;;;;;;;5100785;27;43225;-84
2023/05/19 16:00:16;;;;;;;;;;;;;;;;;;5090782;27;43202;-79